createdAt,value
2018-12-07T00:01:37.741Z,99.90
2018-12-07T00:06:41.227Z,99.90
2018-12-07T00:11:44.763Z,99.90
2018-12-07T00:16:48.260Z,99.90
2018-12-07T00:21:51.766Z,99.90
2018-12-07T00:26:55.375Z,99.90
2018-12-07T00:31:58.903Z,99.90
2018-12-07T00:37:02.776Z,99.90
2018-12-07T00:42:06.271Z,99.90
2018-12-07T00:47:09.766Z,99.90
2018-12-07T00:52:13.267Z,99.90
2018-12-07T00:57:16.853Z,99.90
2018-12-07T01:02:20.559Z,99.90
2018-12-07T01:07:24.156Z,99.90
2018-12-07T01:12:27.914Z,99.90
2018-12-07T01:17:31.408Z,99.90
2018-12-07T01:22:35.046Z,99.90
2018-12-07T01:27:38.562Z,99.90
2018-12-07T01:32:42.167Z,99.90
2018-12-07T01:37:45.673Z,99.90
2018-12-07T01:42:49.522Z,99.90
2018-12-07T01:47:53.881Z,99.90
2018-12-07T01:52:58.358Z,99.90
2018-12-07T01:58:02.409Z,99.90
2018-12-07T02:03:06.929Z,99.90
2018-12-07T02:08:10.484Z,99.90
2018-12-07T02:13:14.120Z,99.90
2018-12-07T02:18:17.674Z,99.90
2018-12-07T02:23:21.302Z,99.90
2018-12-07T02:28:24.808Z,99.90
2018-12-07T02:33:28.513Z,99.90
2018-12-07T02:38:32.172Z,99.90
2018-12-07T02:43:35.684Z,99.90
2018-12-07T02:48:39.188Z,99.90
2018-12-07T02:53:42.887Z,99.90
2018-12-07T02:58:46.688Z,99.90
2018-12-07T03:03:50.208Z,99.90
2018-12-07T03:08:53.712Z,99.90
2018-12-07T03:13:57.247Z,99.90
2018-12-07T03:19:01.675Z,99.90
2018-12-07T03:24:05.602Z,99.90
2018-12-07T03:29:09.361Z,99.90
2018-12-07T03:34:13.006Z,99.90
2018-12-07T03:39:16.919Z,99.90
2018-12-07T03:44:20.933Z,99.90
2018-12-07T03:49:24.652Z,99.90
2018-12-07T03:54:28.837Z,99.90
2018-12-07T03:59:32.386Z,99.90
2018-12-07T04:04:35.902Z,99.90
2018-12-07T04:09:39.461Z,99.90
2018-12-07T04:14:43.185Z,99.90
2018-12-07T04:19:46.662Z,99.90
2018-12-07T04:24:50.280Z,99.90
2018-12-07T04:30:03.910Z,99.90
2018-12-07T04:35:07.587Z,99.90
2018-12-07T04:40:12.089Z,99.90
2018-12-07T04:45:15.558Z,99.90
2018-12-07T04:50:19.028Z,99.90
2018-12-07T05:02:57.214Z,99.90
2018-12-07T05:08:02.148Z,99.90
2018-12-07T05:13:05.916Z,99.90
2018-12-07T05:18:09.508Z,99.90
2018-12-07T05:23:13.418Z,99.90
2018-12-07T05:28:17.906Z,99.90
2018-12-07T05:33:21.767Z,99.90
2018-12-07T05:38:26.127Z,99.90
2018-12-07T05:43:30.694Z,99.90
2018-12-07T05:48:34.260Z,99.90
2018-12-07T05:53:38.001Z,99.90
2018-12-07T05:58:42.062Z,99.90
2018-12-07T06:03:45.782Z,99.90
2018-12-07T06:08:49.753Z,99.90
2018-12-07T06:13:54.592Z,99.90
2018-12-07T06:18:58.564Z,99.90
2018-12-07T06:24:03.064Z,99.90
2018-12-07T06:29:06.630Z,99.90
2018-12-07T06:34:10.300Z,99.90
2018-12-07T06:39:13.840Z,99.90
2018-12-07T06:44:18.495Z,99.90
2018-12-07T06:49:21.955Z,99.90
2018-12-07T06:54:25.536Z,99.90
2018-12-07T06:59:29.339Z,99.90
2018-12-07T07:04:33.471Z,99.90
2018-12-07T07:09:37.051Z,99.90
2018-12-07T07:14:40.837Z,99.90
2018-12-07T07:19:45.067Z,99.90
2018-12-07T07:24:49.066Z,99.90
2018-12-07T07:29:53.145Z,99.90
2018-12-07T07:34:56.768Z,99.90
2018-12-07T07:40:01.159Z,99.90
2018-12-07T07:45:05.603Z,99.90
2018-12-07T07:50:09.327Z,99.90
2018-12-07T07:55:13.043Z,99.90
2018-12-07T08:00:16.968Z,99.90
2018-12-07T08:05:20.885Z,99.90
2018-12-07T08:10:24.945Z,99.90
2018-12-07T08:15:29.044Z,99.90
2018-12-07T08:20:33.102Z,99.90
2018-12-07T08:25:37.563Z,99.90
2018-12-07T08:30:41.714Z,99.90
2018-12-07T08:35:45.164Z,98.60
2018-12-07T08:40:48.872Z,98.60
2018-12-07T08:45:52.363Z,98.50
2018-12-07T08:53:06.639Z,98.30
2018-12-07T08:58:10.113Z,98.40
2018-12-07T09:03:13.565Z,98.30
2018-12-07T09:08:17.227Z,98.70
2018-12-07T09:13:20.694Z,98.20
2018-12-07T09:18:24.180Z,99.30
2018-12-07T09:23:27.677Z,98.30
2018-12-07T09:28:31.287Z,99.20
2018-12-07T09:33:34.953Z,99.00
2018-12-07T09:38:38.821Z,98.40
2018-12-07T09:43:42.799Z,97.70
2018-12-07T09:48:47.559Z,98.00
2018-12-07T09:53:52.178Z,98.00
2018-12-07T09:58:56.206Z,97.70
2018-12-07T10:03:59.768Z,98.40
2018-12-07T10:09:06.110Z,98.30
2018-12-07T10:14:10.310Z,97.90
2018-12-07T10:19:14.004Z,96.90
2018-12-07T10:24:18.313Z,95.60
2018-12-07T10:29:22.296Z,97.10
2018-12-07T10:34:26.419Z,96.30
2018-12-07T10:39:30.444Z,96.40
2018-12-07T10:44:34.002Z,95.10
2018-12-07T10:49:37.574Z,95.40
2018-12-07T10:54:41.093Z,95.30
2018-12-07T10:59:44.588Z,95.80
2018-12-07T11:04:53.354Z,96.50
2018-12-07T11:10:02.036Z,97.10
2018-12-07T11:15:11.553Z,96.80
2018-12-07T11:20:20.752Z,97.00
2018-12-07T11:25:29.383Z,96.00
2018-12-07T11:31:38.228Z,96.10
2018-12-07T11:36:42.385Z,95.30
2018-12-07T11:41:47.111Z,95.40
2018-12-07T11:46:50.572Z,94.40
2018-12-07T11:51:54.036Z,95.00
2018-12-07T11:56:57.493Z,94.60
2018-12-07T12:02:01.548Z,96.70
2018-12-07T12:07:05.141Z,97.00
2018-12-07T12:12:08.714Z,98.10
2018-12-07T12:17:12.778Z,99.40
2018-12-07T12:22:16.376Z,98.40
2018-12-07T12:27:19.852Z,97.80
2018-12-07T12:32:23.860Z,97.50
2018-12-07T12:37:27.317Z,96.20
2018-12-07T12:42:31.977Z,97.40
2018-12-07T12:47:37.393Z,96.70
2018-12-07T12:52:41.036Z,97.10
2018-12-07T12:57:44.727Z,97.70
2018-12-07T13:02:48.397Z,97.60
2018-12-07T13:07:52.086Z,99.70
2018-12-07T13:12:55.609Z,99.90
2018-12-07T13:17:59.332Z,99.90
2018-12-07T13:23:02.815Z,99.60
2018-12-07T13:28:06.337Z,99.90
2018-12-07T13:33:09.830Z,99.90
2018-12-07T13:38:13.579Z,99.90
2018-12-07T13:43:17.652Z,99.90
2018-12-07T13:48:22.186Z,99.90
2018-12-07T13:53:25.889Z,99.90
2018-12-07T13:58:30.988Z,99.90
2018-12-07T14:03:35.017Z,99.90
2018-12-07T14:08:39.038Z,98.30
2018-12-07T14:13:43.537Z,96.50
2018-12-07T14:18:47.213Z,94.70
2018-12-07T14:23:50.973Z,95.10
2018-12-07T14:28:54.610Z,93.00
2018-12-07T14:33:58.616Z,93.20
2018-12-07T14:39:05.818Z,95.20
2018-12-07T14:44:09.649Z,95.10
2018-12-07T14:49:16.128Z,95.90
2018-12-07T14:54:20.655Z,97.30
2018-12-07T14:59:25.683Z,96.60
2018-12-07T15:04:29.589Z,97.70
2018-12-07T15:09:35.330Z,97.30
2018-12-07T15:14:39.423Z,97.90
2018-12-07T15:19:43.857Z,97.90
2018-12-07T15:24:48.550Z,98.10
2018-12-07T15:29:52.551Z,98.30
2018-12-07T15:34:56.416Z,98.10
2018-12-07T15:40:00.348Z,98.70
2018-12-07T15:45:13.372Z,98.90
2018-12-07T15:50:25.060Z,98.50
2018-12-07T15:55:26.627Z,98.50
2018-12-07T16:00:31.721Z,98.70
2018-12-07T16:05:35.935Z,98.20
2018-12-07T16:10:40.658Z,98.50
2018-12-07T16:15:46.128Z,97.90
2018-12-07T16:20:49.846Z,97.40
2018-12-07T16:25:54.688Z,98.00
2018-12-07T16:30:58.815Z,98.70
2018-12-07T16:36:03.487Z,97.90
2018-12-07T16:41:07.782Z,97.20
2018-12-07T16:46:12.196Z,97.40
2018-12-07T16:51:17.510Z,96.90
2018-12-07T16:56:22.949Z,96.80
2018-12-07T17:01:31.092Z,97.60
2018-12-07T17:06:35.277Z,97.40
2018-12-07T17:11:41.357Z,97.00
2018-12-07T17:16:45.231Z,97.20
2018-12-07T17:21:49.356Z,97.50
2018-12-07T17:26:53.686Z,95.80
2018-12-07T17:32:01.968Z,95.60
2018-12-07T17:37:07.249Z,95.20
2018-12-07T17:42:12.003Z,95.40
2018-12-07T17:47:15.722Z,95.10
2018-12-07T17:52:20.444Z,94.80
2018-12-07T17:57:24.856Z,94.90
2018-12-07T18:02:28.952Z,96.90
2018-12-07T18:07:34.190Z,98.20
2018-12-07T18:12:38.193Z,99.50
2018-12-07T18:17:42.850Z,99.90
2018-12-07T18:22:47.078Z,99.90
2018-12-07T18:27:51.326Z,99.90
2018-12-07T18:32:55.289Z,99.90
2018-12-07T18:37:59.803Z,99.90
2018-12-07T18:43:03.959Z,99.90
2018-12-07T18:48:08.233Z,99.90
2018-12-07T18:53:13.056Z,99.90
2018-12-07T18:58:24.759Z,99.70
2018-12-07T19:03:29.619Z,99.80
2018-12-07T19:08:33.800Z,99.90
2018-12-07T19:13:38.331Z,99.90
2018-12-07T19:18:42.157Z,99.90
2018-12-07T19:23:46.540Z,99.90
2018-12-07T19:28:50.997Z,99.90
2018-12-07T19:33:55.501Z,99.90
2018-12-07T19:38:59.593Z,99.90
2018-12-07T19:44:19.343Z,99.90
2018-12-07T19:49:24.006Z,99.90
2018-12-07T19:54:27.784Z,99.90
2018-12-07T19:59:31.644Z,99.90
2018-12-07T20:04:38.495Z,99.90
2018-12-07T20:09:45.093Z,99.90
2018-12-07T20:14:52.550Z,99.90
2018-12-07T20:19:59.943Z,99.90
2018-12-07T20:25:05.263Z,99.90
2018-12-07T20:30:09.310Z,99.90
2018-12-07T20:35:13.911Z,99.90
2018-12-07T20:40:18.707Z,99.90
2018-12-07T20:45:23.057Z,99.90
2018-12-07T20:50:26.999Z,99.90
2018-12-07T20:55:31.299Z,99.90
2018-12-07T21:00:35.633Z,99.90
2018-12-07T21:12:11.285Z,99.90
2018-12-07T21:17:22.839Z,99.90
2018-12-07T21:22:26.842Z,99.90
2018-12-07T21:27:30.783Z,99.90
2018-12-07T21:32:35.340Z,99.90
2018-12-07T21:37:39.682Z,99.90
2018-12-07T21:42:43.502Z,99.90
2018-12-07T21:48:54.648Z,99.90
2018-12-07T21:53:58.731Z,99.90
2018-12-07T21:59:02.458Z,99.90
2018-12-07T22:04:06.372Z,99.90
2018-12-07T22:09:10.251Z,99.90
2018-12-07T22:14:13.846Z,99.90
2018-12-07T22:19:17.490Z,99.90
2018-12-07T22:24:23.091Z,99.90
2018-12-07T22:29:27.598Z,99.90
2018-12-07T22:34:32.038Z,99.90
2018-12-07T22:39:36.100Z,99.90
2018-12-07T22:44:39.915Z,99.90
2018-12-07T22:49:43.514Z,99.90
2018-12-07T22:54:46.995Z,99.90
2018-12-07T22:59:51.158Z,99.90
2018-12-07T23:04:55.547Z,99.90
2018-12-07T23:10:00.211Z,99.90
2018-12-07T23:15:11.982Z,99.90
2018-12-07T23:20:15.838Z,99.90
2018-12-07T23:25:19.514Z,99.90
2018-12-07T23:30:23.039Z,99.90
2018-12-07T23:35:26.553Z,99.90
2018-12-07T23:40:30.488Z,99.90
2018-12-07T23:45:33.945Z,99.90
2018-12-07T23:58:11.245Z,99.90
